sensor_id;sensor_type;location;lat;lon;timestamp;P1;durP1;ratioP1;P2;durP2;ratioP2
22675;SDS011;12521;43.310;21.876;2023-12-28T00:00:19;36.0;;;34.0;;
22675;SDS011;12521;43.310;21.876;2023-12-28T00:04:55;40.0;;;36.0;;
22675;SDS011;12521;43.310;21.876;2023-12-28T00:09:31;40.0;;;36.0;;
22675;SDS011;12521;43.310;21.876;2023-12-28T00:14:08;43.0;;;38.0;;
22675;SDS011;12521;43.310;21.876;2023-12-28T00:18:44;43.0;;;38.0;;
22675;SDS011;12521;43.310;21.876;2023-12-28T00:23:20;42.0;;;38.0;;
22675;SDS011;12521;43.310;21.876;2023-12-28T00:27:57;42.0;;;38.0;;
22675;SDS011;12521;43.310;21.876;2023-12-28T00:32:33;42.0;;;37.0;;
22675;SDS011;12521;43.310;21.876;2023-12-28T00:37:10;42.0;;;37.0;;
22675;SDS011;12521;43.310;21.876;2023-12-28T00:41:46;42.0;;;36.0;;
22675;SDS011;12521;43.310;21.876;2023-12-28T00:46:22;42.0;;;36.0;;
22675;SDS011;12521;43.310;21.876;2023-12-28T00:50:59;43.0;;;34.0;;
22675;SDS011;12521;43.310;21.876;2023-12-28T00:55:35;43.0;;;34.0;;
22675;SDS011;12521;43.310;21.876;2023-12-28T01:00:13;43.0;;;34.0;;
22675;SDS011;12521;43.310;21.876;2023-12-28T01:04:50;42.0;;;32.0;;
22675;SDS011;12521;43.310;21.876;2023-12-28T01:09:26;42.0;;;32.0;;
22675;SDS011;12521;43.310;21.876;2023-12-28T01:14:02;40.0;;;31.0;;
22675;SDS011;12521;43.310;21.876;2023-12-28T01:18:38;40.0;;;31.0;;
22675;SDS011;12521;43.310;21.876;2023-12-28T01:23:14;47.0;;;36.0;;
22675;SDS011;12521;43.310;21.876;2023-12-28T01:27:50;47.0;;;36.0;;
22675;SDS011;12521;43.310;21.876;2023-12-28T01:32:26;54.0;;;41.0;;
22675;SDS011;12521;43.310;21.876;2023-12-28T01:37:03;54.0;;;41.0;;
22675;SDS011;12521;43.310;21.876;2023-12-28T01:41:39;45.0;;;34.0;;
22675;SDS011;12521;43.310;21.876;2023-12-28T01:46:19;45.0;;;34.0;;
22675;SDS011;12521;43.310;21.876;2023-12-28T01:50:59;36.0;;;27.0;;
22675;SDS011;12521;43.310;21.876;2023-12-28T01:55:36;36.0;;;27.0;;
22675;SDS011;12521;43.310;21.876;2023-12-28T02:00:14;36.0;;;27.0;;
22675;SDS011;12521;43.310;21.876;2023-12-28T02:04:51;32.0;;;25.0;;
22675;SDS011;12521;43.310;21.876;2023-12-28T02:09:29;32.0;;;25.0;;
22675;SDS011;12521;43.310;21.876;2023-12-28T02:14:05;29.0;;;23.0;;
22675;SDS011;12521;43.310;21.876;2023-12-28T02:18:50;29.0;;;23.0;;
22675;SDS011;12521;43.310;21.876;2023-12-28T02:23:32;31.0;;;22.0;;
22675;SDS011;12521;43.310;21.876;2023-12-28T02:28:10;31.0;;;22.0;;
22675;SDS011;12521;43.310;21.876;2023-12-28T02:33:09;33.0;;;20.0;;
22675;SDS011;12521;43.310;21.876;2023-12-28T02:38:03;33.0;;;20.0;;
22675;SDS011;12521;43.310;21.876;2023-12-28T02:42:45;34.0;;;24.0;;
22675;SDS011;12521;43.310;21.876;2023-12-28T02:47:21;34.0;;;24.0;;
22675;SDS011;12521;43.310;21.876;2023-12-28T02:51:57;35.0;;;29.0;;
22675;SDS011;12521;43.310;21.876;2023-12-28T02:56:33;35.0;;;29.0;;
22675;SDS011;12521;43.310;21.876;2023-12-28T03:01:09;38.0;;;30.0;;
22675;SDS011;12521;43.310;21.876;2023-12-28T03:05:46;38.0;;;30.0;;
22675;SDS011;12521;43.310;21.876;2023-12-28T03:10:22;38.0;;;30.0;;
22675;SDS011;12521;43.310;21.876;2023-12-28T03:14:59;40.0;;;32.0;;
22675;SDS011;12521;43.310;21.876;2023-12-28T03:19:36;40.0;;;32.0;;
22675;SDS011;12521;43.310;21.876;2023-12-28T03:24:12;34.0;;;28.0;;
22675;SDS011;12521;43.310;21.876;2023-12-28T03:28:49;34.0;;;28.0;;
22675;SDS011;12521;43.310;21.876;2023-12-28T03:33:25;27.0;;;24.0;;
22675;SDS011;12521;43.310;21.876;2023-12-28T03:38:01;27.0;;;24.0;;
22675;SDS011;12521;43.310;21.876;2023-12-28T03:42:39;25.0;;;22.0;;
22675;SDS011;12521;43.310;21.876;2023-12-28T03:47:15;25.0;;;22.0;;
22675;SDS011;12521;43.310;21.876;2023-12-28T03:51:52;23.0;;;21.0;;
22675;SDS011;12521;43.310;21.876;2023-12-28T03:56:29;23.0;;;21.0;;
22675;SDS011;12521;43.310;21.876;2023-12-28T04:01:05;23.0;;;21.0;;
22675;SDS011;12521;43.310;21.876;2023-12-28T04:05:42;20.0;;;18.0;;
22675;SDS011;12521;43.310;21.876;2023-12-28T04:10:32;20.0;;;18.0;;
22675;SDS011;12521;43.310;21.876;2023-12-28T04:15:09;16.0;;;15.0;;
22675;SDS011;12521;43.310;21.876;2023-12-28T04:19:45;16.0;;;15.0;;
22675;SDS011;12521;43.310;21.876;2023-12-28T04:24:22;20.0;;;17.0;;
22675;SDS011;12521;43.310;21.876;2023-12-28T04:28:59;20.0;;;17.0;;
22675;SDS011;12521;43.310;21.876;2023-12-28T04:33:35;24.0;;;19.0;;
22675;SDS011;12521;43.310;21.876;2023-12-28T04:38:12;24.0;;;19.0;;
22675;SDS011;12521;43.310;21.876;2023-12-28T04:42:49;28.0;;;18.0;;
22675;SDS011;12521;43.310;21.876;2023-12-28T04:47:25;28.0;;;18.0;;
22675;SDS011;12521;43.310;21.876;2023-12-28T04:52:02;31.0;;;18.0;;
22675;SDS011;12521;43.310;21.876;2023-12-28T04:56:40;31.0;;;18.0;;
22675;SDS011;12521;43.310;21.876;2023-12-28T05:01:16;25.0;;;18.0;;
22675;SDS011;12521;43.310;21.876;2023-12-28T05:05:52;25.0;;;18.0;;
22675;SDS011;12521;43.310;21.876;2023-12-28T05:10:28;25.0;;;18.0;;
22675;SDS011;12521;43.310;21.876;2023-12-28T05:15:06;19.0;;;18.0;;
22675;SDS011;12521;43.310;21.876;2023-12-28T05:19:43;19.0;;;18.0;;
22675;SDS011;12521;43.310;21.876;2023-12-28T05:24:19;22.0;;;18.0;;
22675;SDS011;12521;43.310;21.876;2023-12-28T05:28:55;22.0;;;18.0;;
22675;SDS011;12521;43.310;21.876;2023-12-28T05:33:32;25.0;;;19.0;;
22675;SDS011;12521;43.310;21.876;2023-12-28T05:38:08;25.0;;;19.0;;
22675;SDS011;12521;43.310;21.876;2023-12-28T05:42:44;22.0;;;19.0;;
22675;SDS011;12521;43.310;21.876;2023-12-28T05:47:20;22.0;;;19.0;;
22675;SDS011;12521;43.310;21.876;2023-12-28T05:51:57;20.0;;;19.0;;
22675;SDS011;12521;43.310;21.876;2023-12-28T05:56:33;20.0;;;19.0;;
22675;SDS011;12521;43.310;21.876;2023-12-28T06:01:10;20.0;;;19.0;;
22675;SDS011;12521;43.310;21.876;2023-12-28T06:05:46;24.0;;;18.0;;
22675;SDS011;12521;43.310;21.876;2023-12-28T06:10:23;24.0;;;18.0;;
22675;SDS011;12521;43.310;21.876;2023-12-28T06:14:59;28.0;;;18.0;;
22675;SDS011;12521;43.310;21.876;2023-12-28T06:19:36;28.0;;;18.0;;
22675;SDS011;12521;43.310;21.876;2023-12-28T06:24:12;26.0;;;20.0;;
22675;SDS011;12521;43.310;21.876;2023-12-28T06:28:48;26.0;;;20.0;;
22675;SDS011;12521;43.310;21.876;2023-12-28T06:33:24;23.0;;;21.0;;
22675;SDS011;12521;43.310;21.876;2023-12-28T06:38:00;23.0;;;21.0;;
22675;SDS011;12521;43.310;21.876;2023-12-28T06:42:36;28.0;;;26.0;;
22675;SDS011;12521;43.310;21.876;2023-12-28T06:47:12;28.0;;;26.0;;
22675;SDS011;12521;43.310;21.876;2023-12-28T06:51:48;32.0;;;30.0;;
22675;SDS011;12521;43.310;21.876;2023-12-28T06:56:25;32.0;;;30.0;;
22675;SDS011;12521;43.310;21.876;2023-12-28T07:01:03;32.0;;;30.0;;
22675;SDS011;12521;43.310;21.876;2023-12-28T07:05:40;42.0;;;35.0;;
22675;SDS011;12521;43.310;21.876;2023-12-28T07:10:17;42.0;;;35.0;;
22675;SDS011;12521;43.310;21.876;2023-12-28T07:14:53;52.0;;;40.0;;
22675;SDS011;12521;43.310;21.876;2023-12-28T07:19:29;52.0;;;40.0;;
22675;SDS011;12521;43.310;21.876;2023-12-28T07:24:06;46.0;;;38.0;;
22675;SDS011;12521;43.310;21.876;2023-12-28T07:28:42;46.0;;;38.0;;
22675;SDS011;12521;43.310;21.876;2023-12-28T07:33:19;39.0;;;36.0;;
22675;SDS011;12521;43.310;21.876;2023-12-28T07:37:56;39.0;;;36.0;;
22675;SDS011;12521;43.310;21.876;2023-12-28T07:42:32;35.0;;;32.0;;
22675;SDS011;12521;43.310;21.876;2023-12-28T07:47:08;35.0;;;32.0;;
22675;SDS011;12521;43.310;21.876;2023-12-28T07:51:44;31.0;;;29.0;;
22675;SDS011;12521;43.310;21.876;2023-12-28T07:56:20;31.0;;;29.0;;
22675;SDS011;12521;43.310;21.876;2023-12-28T08:00:56;31.0;;;29.0;;
22675;SDS011;12521;43.310;21.876;2023-12-28T08:05:32;31.0;;;28.0;;
22675;SDS011;12521;43.310;21.876;2023-12-28T08:10:09;31.0;;;28.0;;
22675;SDS011;12521;43.310;21.876;2023-12-28T08:14:45;31.0;;;26.0;;
22675;SDS011;12521;43.310;21.876;2023-12-28T08:19:21;31.0;;;26.0;;
22675;SDS011;12521;43.310;21.876;2023-12-28T08:23:58;40.0;;;35.0;;
22675;SDS011;12521;43.310;21.876;2023-12-28T08:28:34;40.0;;;35.0;;
22675;SDS011;12521;43.310;21.876;2023-12-28T08:33:10;49.0;;;44.0;;
22675;SDS011;12521;43.310;21.876;2023-12-28T08:37:47;49.0;;;44.0;;
22675;SDS011;12521;43.310;21.876;2023-12-28T08:42:23;48.0;;;40.0;;
22675;SDS011;12521;43.310;21.876;2023-12-28T08:46:59;48.0;;;40.0;;
22675;SDS011;12521;43.310;21.876;2023-12-28T08:51:35;47.0;;;37.0;;
22675;SDS011;12521;43.310;21.876;2023-12-28T08:56:20;47.0;;;37.0;;
22675;SDS011;12521;43.310;21.876;2023-12-28T09:00:57;47.0;;;37.0;;
22675;SDS011;12521;43.310;21.876;2023-12-28T09:05:34;40.0;;;32.0;;
22675;SDS011;12521;43.310;21.876;2023-12-28T09:10:11;40.0;;;32.0;;
22675;SDS011;12521;43.310;21.876;2023-12-28T09:14:48;32.0;;;26.0;;
22675;SDS011;12521;43.310;21.876;2023-12-28T09:19:23;32.0;;;26.0;;
22675;SDS011;12521;43.310;21.876;2023-12-28T09:23:59;37.0;;;30.0;;
22675;SDS011;12521;43.310;21.876;2023-12-28T09:28:35;37.0;;;30.0;;
22675;SDS011;12521;43.310;21.876;2023-12-28T09:33:11;42.0;;;34.0;;
22675;SDS011;12521;43.310;21.876;2023-12-28T09:37:47;42.0;;;34.0;;
22675;SDS011;12521;43.310;21.876;2023-12-28T09:42:32;38.0;;;30.0;;
22675;SDS011;12521;43.310;21.876;2023-12-28T09:47:24;38.0;;;30.0;;
22675;SDS011;12521;43.310;21.876;2023-12-28T09:52:00;35.0;;;27.0;;
22675;SDS011;12521;43.310;21.876;2023-12-28T09:56:38;35.0;;;27.0;;
22675;SDS011;12521;43.310;21.876;2023-12-28T10:01:18;35.0;;;27.0;;
22675;SDS011;12521;43.310;21.876;2023-12-28T10:05:56;28.0;;;22.0;;
22675;SDS011;12521;43.310;21.876;2023-12-28T10:10:32;28.0;;;22.0;;
22675;SDS011;12521;43.310;21.876;2023-12-28T10:15:09;21.0;;;16.0;;
22675;SDS011;12521;43.310;21.876;2023-12-28T10:19:49;21.0;;;16.0;;
22675;SDS011;12521;43.310;21.876;2023-12-28T10:24:26;28.0;;;20.0;;
22675;SDS011;12521;43.310;21.876;2023-12-28T10:29:02;28.0;;;20.0;;
22675;SDS011;12521;43.310;21.876;2023-12-28T10:33:38;34.0;;;24.0;;
22675;SDS011;12521;43.310;21.876;2023-12-28T10:38:17;34.0;;;24.0;;
22675;SDS011;12521;43.310;21.876;2023-12-28T10:42:58;32.0;;;23.0;;
22675;SDS011;12521;43.310;21.876;2023-12-28T10:47:43;32.0;;;23.0;;
22675;SDS011;12521;43.310;21.876;2023-12-28T10:52:31;29.0;;;22.0;;
22675;SDS011;12521;43.310;21.876;2023-12-28T10:57:22;29.0;;;22.0;;
22675;SDS011;12521;43.310;21.876;2023-12-28T11:02:14;33.0;;;26.0;;
22675;SDS011;12521;43.310;21.876;2023-12-28T11:06:58;33.0;;;26.0;;
22675;SDS011;12521;43.310;21.876;2023-12-28T11:11:38;37.0;;;29.0;;
22675;SDS011;12521;43.310;21.876;2023-12-28T11:16:18;37.0;;;29.0;;
22675;SDS011;12521;43.310;21.876;2023-12-28T11:20:56;37.0;;;29.0;;
22675;SDS011;12521;43.310;21.876;2023-12-28T11:25:33;42.0;;;35.0;;
22675;SDS011;12521;43.310;21.876;2023-12-28T11:30:12;42.0;;;35.0;;
22675;SDS011;12521;43.310;21.876;2023-12-28T11:34:58;48.0;;;41.0;;
22675;SDS011;12521;43.310;21.876;2023-12-28T11:39:37;48.0;;;41.0;;
22675;SDS011;12521;43.310;21.876;2023-12-28T11:44:13;41.0;;;36.0;;
22675;SDS011;12521;43.310;21.876;2023-12-28T11:48:49;41.0;;;36.0;;
22675;SDS011;12521;43.310;21.876;2023-12-28T11:53:26;34.0;;;30.0;;
22675;SDS011;12521;43.310;21.876;2023-12-28T11:58:02;34.0;;;30.0;;
22675;SDS011;12521;43.310;21.876;2023-12-28T12:02:44;34.0;;;27.0;;
22675;SDS011;12521;43.310;21.876;2023-12-28T12:07:20;34.0;;;27.0;;
22675;SDS011;12521;43.310;21.876;2023-12-28T12:11:56;33.0;;;24.0;;
22675;SDS011;12521;43.310;21.876;2023-12-28T12:16:35;33.0;;;24.0;;
22675;SDS011;12521;43.310;21.876;2023-12-28T12:21:18;33.0;;;24.0;;
22675;SDS011;12521;43.310;21.876;2023-12-28T12:25:54;36.0;;;26.0;;
22675;SDS011;12521;43.310;21.876;2023-12-28T12:30:30;36.0;;;26.0;;
22675;SDS011;12521;43.310;21.876;2023-12-28T12:35:07;40.0;;;29.0;;
22675;SDS011;12521;43.310;21.876;2023-12-28T12:39:46;40.0;;;29.0;;
22675;SDS011;12521;43.310;21.876;2023-12-28T12:44:23;38.0;;;30.0;;
22675;SDS011;12521;43.310;21.876;2023-12-28T12:49:01;38.0;;;30.0;;
22675;SDS011;12521;43.310;21.876;2023-12-28T12:53:37;36.0;;;30.0;;
22675;SDS011;12521;43.310;21.876;2023-12-28T12:58:14;36.0;;;30.0;;
22675;SDS011;12521;43.310;21.876;2023-12-28T13:02:51;41.0;;;33.0;;
22675;SDS011;12521;43.310;21.876;2023-12-28T13:07:27;41.0;;;33.0;;
22675;SDS011;12521;43.310;21.876;2023-12-28T13:12:04;46.0;;;36.0;;
22675;SDS011;12521;43.310;21.876;2023-12-28T13:16:40;46.0;;;36.0;;
22675;SDS011;12521;43.310;21.876;2023-12-28T13:21:16;46.0;;;36.0;;
22675;SDS011;12521;43.310;21.876;2023-12-28T13:25:52;54.0;;;42.0;;
22675;SDS011;12521;43.310;21.876;2023-12-28T13:30:28;54.0;;;42.0;;
22675;SDS011;12521;43.310;21.876;2023-12-28T13:35:05;62.0;;;49.0;;
22675;SDS011;12521;43.310;21.876;2023-12-28T13:39:42;62.0;;;49.0;;
22675;SDS011;12521;43.310;21.876;2023-12-28T13:44:19;62.0;;;50.0;;
22675;SDS011;12521;43.310;21.876;2023-12-28T13:48:55;62.0;;;50.0;;
22675;SDS011;12521;43.310;21.876;2023-12-28T13:53:31;61.0;;;52.0;;
22675;SDS011;12521;43.310;21.876;2023-12-28T13:58:07;61.0;;;52.0;;
22675;SDS011;12521;43.310;21.876;2023-12-28T14:02:43;56.0;;;46.0;;
22675;SDS011;12521;43.310;21.876;2023-12-28T14:07:20;56.0;;;46.0;;
22675;SDS011;12521;43.310;21.876;2023-12-28T14:11:56;52.0;;;41.0;;
22675;SDS011;12521;43.310;21.876;2023-12-28T14:16:32;52.0;;;41.0;;
22675;SDS011;12521;43.310;21.876;2023-12-28T14:21:08;52.0;;;41.0;;
22675;SDS011;12521;43.310;21.876;2023-12-28T14:25:47;57.0;;;44.0;;
22675;SDS011;12521;43.310;21.876;2023-12-28T14:30:25;57.0;;;44.0;;
22675;SDS011;12521;43.310;21.876;2023-12-28T14:35:03;62.0;;;47.0;;
22675;SDS011;12521;43.310;21.876;2023-12-28T14:39:39;62.0;;;47.0;;
22675;SDS011;12521;43.310;21.876;2023-12-28T14:44:15;76.0;;;58.0;;
22675;SDS011;12521;43.310;21.876;2023-12-28T14:48:52;76.0;;;58.0;;
22675;SDS011;12521;43.310;21.876;2023-12-28T14:53:28;90.0;;;69.0;;
22675;SDS011;12521;43.310;21.876;2023-12-28T14:58:04;90.0;;;69.0;;
22675;SDS011;12521;43.310;21.876;2023-12-28T15:02:40;94.0;;;69.0;;
22675;SDS011;12521;43.310;21.876;2023-12-28T15:07:16;94.0;;;69.0;;
22675;SDS011;12521;43.310;21.876;2023-12-28T15:11:54;98.0;;;69.0;;
22675;SDS011;12521;43.310;21.876;2023-12-28T15:16:32;98.0;;;69.0;;
22675;SDS011;12521;43.310;21.876;2023-12-28T15:21:10;98.0;;;69.0;;
22675;SDS011;12521;43.310;21.876;2023-12-28T15:25:48;76.0;;;56.0;;
22675;SDS011;12521;43.310;21.876;2023-12-28T15:30:25;76.0;;;56.0;;
22675;SDS011;12521;43.310;21.876;2023-12-28T15:35:01;54.0;;;44.0;;
22675;SDS011;12521;43.310;21.876;2023-12-28T15:39:39;54.0;;;44.0;;
22675;SDS011;12521;43.310;21.876;2023-12-28T15:44:15;68.0;;;52.0;;
22675;SDS011;12521;43.310;21.876;2023-12-28T15:48:51;68.0;;;52.0;;
22675;SDS011;12521;43.310;21.876;2023-12-28T15:53:27;82.0;;;61.0;;
22675;SDS011;12521;43.310;21.876;2023-12-28T15:58:03;82.0;;;61.0;;
22675;SDS011;12521;43.310;21.876;2023-12-28T16:02:39;74.0;;;58.0;;
22675;SDS011;12521;43.310;21.876;2023-12-28T16:07:15;74.0;;;58.0;;
22675;SDS011;12521;43.310;21.876;2023-12-28T16:11:51;65.0;;;54.0;;
22675;SDS011;12521;43.310;21.876;2023-12-28T16:16:28;65.0;;;54.0;;
22675;SDS011;12521;43.310;21.876;2023-12-28T16:21:09;65.0;;;54.0;;
22675;SDS011;12521;43.310;21.876;2023-12-28T16:25:48;58.0;;;49.0;;
22675;SDS011;12521;43.310;21.876;2023-12-28T16:30:24;58.0;;;49.0;;
22675;SDS011;12521;43.310;21.876;2023-12-28T16:35:00;51.0;;;44.0;;
22675;SDS011;12521;43.310;21.876;2023-12-28T16:39:36;51.0;;;44.0;;
22675;SDS011;12521;43.310;21.876;2023-12-28T16:44:12;52.0;;;45.0;;
22675;SDS011;12521;43.310;21.876;2023-12-28T16:48:48;52.0;;;45.0;;
22675;SDS011;12521;43.310;21.876;2023-12-28T16:53:25;52.0;;;46.0;;
22675;SDS011;12521;43.310;21.876;2023-12-28T16:58:01;52.0;;;46.0;;
22675;SDS011;12521;43.310;21.876;2023-12-28T17:02:37;60.0;;;51.0;;
22675;SDS011;12521;43.310;21.876;2023-12-28T17:07:14;60.0;;;51.0;;
22675;SDS011;12521;43.310;21.876;2023-12-28T17:12:11;68.0;;;56.0;;
22675;SDS011;12521;43.310;21.876;2023-12-28T17:16:50;68.0;;;56.0;;
22675;SDS011;12521;43.310;21.876;2023-12-28T17:21:31;68.0;;;56.0;;
22675;SDS011;12521;43.310;21.876;2023-12-28T17:26:25;80.0;;;61.0;;
22675;SDS011;12521;43.310;21.876;2023-12-28T17:31:10;80.0;;;61.0;;
22675;SDS011;12521;43.310;21.876;2023-12-28T17:35:48;91.0;;;66.0;;
22675;SDS011;12521;43.310;21.876;2023-12-28T17:40:27;91.0;;;66.0;;
22675;SDS011;12521;43.310;21.876;2023-12-28T17:45:11;84.0;;;65.0;;
22675;SDS011;12521;43.310;21.876;2023-12-28T17:49:58;84.0;;;65.0;;
22675;SDS011;12521;43.310;21.876;2023-12-28T17:54:37;76.0;;;64.0;;
22675;SDS011;12521;43.310;21.876;2023-12-28T17:59:13;76.0;;;64.0;;
22675;SDS011;12521;43.310;21.876;2023-12-28T18:03:49;80.0;;;64.0;;
22675;SDS011;12521;43.310;21.876;2023-12-28T18:08:25;80.0;;;64.0;;
22675;SDS011;12521;43.310;21.876;2023-12-28T18:13:01;83.0;;;64.0;;
22675;SDS011;12521;43.310;21.876;2023-12-28T18:17:38;83.0;;;64.0;;
22675;SDS011;12521;43.310;21.876;2023-12-28T18:22:14;92.0;;;66.0;;
22675;SDS011;12521;43.310;21.876;2023-12-28T18:26:50;92.0;;;66.0;;
22675;SDS011;12521;43.310;21.876;2023-12-28T18:31:26;92.0;;;66.0;;
22675;SDS011;12521;43.310;21.876;2023-12-28T18:36:02;100.0;;;69.0;;
22675;SDS011;12521;43.310;21.876;2023-12-28T18:40:38;100.0;;;69.0;;
22675;SDS011;12521;43.310;21.876;2023-12-28T18:45:14;98.0;;;77.0;;
22675;SDS011;12521;43.310;21.876;2023-12-28T18:49:50;98.0;;;77.0;;
22675;SDS011;12521;43.310;21.876;2023-12-28T18:54:26;95.0;;;85.0;;
22675;SDS011;12521;43.310;21.876;2023-12-28T18:59:02;95.0;;;85.0;;
22675;SDS011;12521;43.310;21.876;2023-12-28T19:03:38;92.0;;;80.0;;
22675;SDS011;12521;43.310;21.876;2023-12-28T19:08:14;92.0;;;80.0;;
22675;SDS011;12521;43.310;21.876;2023-12-28T19:12:50;89.0;;;75.0;;
22675;SDS011;12521;43.310;21.876;2023-12-28T19:17:27;89.0;;;75.0;;
22675;SDS011;12521;43.310;21.876;2023-12-28T19:22:03;96.0;;;84.0;;
22675;SDS011;12521;43.310;21.876;2023-12-28T19:26:39;96.0;;;84.0;;
22675;SDS011;12521;43.310;21.876;2023-12-28T19:31:17;96.0;;;84.0;;
22675;SDS011;12521;43.310;21.876;2023-12-28T19:35:53;103.0;;;93.0;;
22675;SDS011;12521;43.310;21.876;2023-12-28T19:40:30;103.0;;;93.0;;
22675;SDS011;12521;43.310;21.876;2023-12-28T19:45:07;90.0;;;77.0;;
22675;SDS011;12521;43.310;21.876;2023-12-28T19:49:44;90.0;;;77.0;;
22675;SDS011;12521;43.310;21.876;2023-12-28T19:54:20;76.0;;;61.0;;
22675;SDS011;12521;43.310;21.876;2023-12-28T19:58:56;76.0;;;61.0;;
22675;SDS011;12521;43.310;21.876;2023-12-28T20:03:32;70.0;;;56.0;;
22675;SDS011;12521;43.310;21.876;2023-12-28T20:08:09;70.0;;;56.0;;
22675;SDS011;12521;43.310;21.876;2023-12-28T20:12:45;63.0;;;52.0;;
22675;SDS011;12521;43.310;21.876;2023-12-28T20:17:21;63.0;;;52.0;;
22675;SDS011;12521;43.310;21.876;2023-12-28T20:21:57;63.0;;;52.0;;
22675;SDS011;12521;43.310;21.876;2023-12-28T20:26:34;68.0;;;60.0;;
22675;SDS011;12521;43.310;21.876;2023-12-28T20:31:15;68.0;;;60.0;;
22675;SDS011;12521;43.310;21.876;2023-12-28T20:35:52;74.0;;;67.0;;
22675;SDS011;12521;43.310;21.876;2023-12-28T20:40:29;74.0;;;67.0;;
22675;SDS011;12521;43.310;21.876;2023-12-28T20:45:07;76.0;;;68.0;;
22675;SDS011;12521;43.310;21.876;2023-12-28T20:49:45;76.0;;;68.0;;
22675;SDS011;12521;43.310;21.876;2023-12-28T20:54:21;78.0;;;68.0;;
22675;SDS011;12521;43.310;21.876;2023-12-28T20:58:57;78.0;;;68.0;;
22675;SDS011;12521;43.310;21.876;2023-12-28T21:03:34;84.0;;;74.0;;
22675;SDS011;12521;43.310;21.876;2023-12-28T21:08:10;84.0;;;74.0;;
22675;SDS011;12521;43.310;21.876;2023-12-28T21:12:46;91.0;;;79.0;;
22675;SDS011;12521;43.310;21.876;2023-12-28T21:17:22;91.0;;;79.0;;
22675;SDS011;12521;43.310;21.876;2023-12-28T21:21:58;91.0;;;79.0;;
22675;SDS011;12521;43.310;21.876;2023-12-28T21:26:34;82.0;;;68.0;;
22675;SDS011;12521;43.310;21.876;2023-12-28T21:31:10;82.0;;;68.0;;
22675;SDS011;12521;43.310;21.876;2023-12-28T21:35:47;72.0;;;56.0;;
22675;SDS011;12521;43.310;21.876;2023-12-28T21:40:23;72.0;;;56.0;;
22675;SDS011;12521;43.310;21.876;2023-12-28T21:45:00;65.0;;;50.0;;
22675;SDS011;12521;43.310;21.876;2023-12-28T21:49:36;65.0;;;50.0;;
22675;SDS011;12521;43.310;21.876;2023-12-28T21:54:13;58.0;;;43.0;;
22675;SDS011;12521;43.310;21.876;2023-12-28T21:58:49;58.0;;;43.0;;
22675;SDS011;12521;43.310;21.876;2023-12-28T22:03:25;56.0;;;43.0;;
22675;SDS011;12521;43.310;21.876;2023-12-28T22:08:02;56.0;;;43.0;;
22675;SDS011;12521;43.310;21.876;2023-12-28T22:12:40;53.0;;;43.0;;
22675;SDS011;12521;43.310;21.876;2023-12-28T22:17:16;53.0;;;43.0;;
22675;SDS011;12521;43.310;21.876;2023-12-28T22:21:52;53.0;;;43.0;;
22675;SDS011;12521;43.310;21.876;2023-12-28T22:26:29;49.0;;;42.0;;
22675;SDS011;12521;43.310;21.876;2023-12-28T22:31:05;49.0;;;42.0;;
22675;SDS011;12521;43.310;21.876;2023-12-28T22:35:42;45.0;;;42.0;;
22675;SDS011;12521;43.310;21.876;2023-12-28T22:40:18;45.0;;;42.0;;
22675;SDS011;12521;43.310;21.876;2023-12-28T22:44:55;46.0;;;40.0;;
22675;SDS011;12521;43.310;21.876;2023-12-28T22:49:31;46.0;;;40.0;;
22675;SDS011;12521;43.310;21.876;2023-12-28T22:54:07;47.0;;;39.0;;
22675;SDS011;12521;43.310;21.876;2023-12-28T22:58:43;47.0;;;39.0;;
22675;SDS011;12521;43.310;21.876;2023-12-28T23:03:20;44.0;;;37.0;;
22675;SDS011;12521;43.310;21.876;2023-12-28T23:07:56;44.0;;;37.0;;
22675;SDS011;12521;43.310;21.876;2023-12-28T23:12:32;42.0;;;35.0;;
22675;SDS011;12521;43.310;21.876;2023-12-28T23:17:09;42.0;;;35.0;;
22675;SDS011;12521;43.310;21.876;2023-12-28T23:21:45;42.0;;;35.0;;
22675;SDS011;12521;43.310;21.876;2023-12-28T23:26:22;39.0;;;34.0;;
22675;SDS011;12521;43.310;21.876;2023-12-28T23:30:58;39.0;;;34.0;;
22675;SDS011;12521;43.310;21.876;2023-12-28T23:35:35;36.0;;;32.0;;
22675;SDS011;12521;43.310;21.876;2023-12-28T23:40:11;36.0;;;32.0;;
22675;SDS011;12521;43.310;21.876;2023-12-28T23:44:47;41.0;;;31.0;;
22675;SDS011;12521;43.310;21.876;2023-12-28T23:49:24;41.0;;;31.0;;
22675;SDS011;12521;43.310;21.876;2023-12-28T23:54:01;46.0;;;30.0;;
22675;SDS011;12521;43.310;21.876;2023-12-28T23:58:37;46.0;;;30.0;;
